createdAt,value
2018-04-06T00:00:19.047Z,73.29
2018-04-06T00:02:47.303Z,73.69
2018-04-06T00:05:17.264Z,74.50
2018-04-06T00:07:45.626Z,73.96
2018-04-06T00:10:18.467Z,74.51
2018-04-06T00:12:50.850Z,74.09
2018-04-06T00:15:19.163Z,74.71
2018-04-06T00:17:47.460Z,75.03
2018-04-06T00:20:15.711Z,75.08
2018-04-06T00:22:43.983Z,74.07
2018-04-06T00:25:12.366Z,74.63
2018-04-06T00:27:40.637Z,75.96
2018-04-06T00:30:08.922Z,76.04
2018-04-06T00:32:37.235Z,76.87
2018-04-06T00:35:05.995Z,76.92
2018-04-06T00:37:34.307Z,77.08
2018-04-06T00:40:02.756Z,76.65
2018-04-06T00:42:31.230Z,75.93
2018-04-06T00:44:59.485Z,75.60
2018-04-06T00:47:27.983Z,75.07
2018-04-06T00:49:56.456Z,76.04
2018-04-06T00:52:24.779Z,76.23
2018-04-06T00:54:53.166Z,77.25
2018-04-06T00:57:21.714Z,76.47
2018-04-06T00:59:50.043Z,77.05
2018-04-06T01:02:18.813Z,76.10
2018-04-06T01:04:47.126Z,76.91
2018-04-06T01:07:15.394Z,76.14
2018-04-06T01:09:43.667Z,76.16
2018-04-06T01:12:11.938Z,75.77
2018-04-06T01:14:40.349Z,75.00
2018-04-06T01:17:08.597Z,76.15
2018-04-06T01:19:36.890Z,75.45
2018-04-06T01:22:05.264Z,75.85
2018-04-06T01:24:33.541Z,75.68
2018-04-06T01:27:01.800Z,76.01
2018-04-06T01:29:30.845Z,74.83
2018-04-06T01:31:59.333Z,74.30
2018-04-06T01:34:27.601Z,73.06
2018-04-06T01:36:56.654Z,69.93
2018-04-06T01:39:24.970Z,68.49
2018-04-06T01:41:54.015Z,70.75
2018-04-06T01:44:22.296Z,70.13
2018-04-06T01:46:51.122Z,68.58
2018-04-06T01:49:19.556Z,68.19
2018-04-06T01:51:47.845Z,66.52
2018-04-06T01:54:16.134Z,67.57
2018-04-06T01:56:44.416Z,67.65
2018-04-06T01:59:12.655Z,69.85
2018-04-06T02:01:40.924Z,67.19
2018-04-06T02:04:09.205Z,68.17
2018-04-06T02:06:37.466Z,66.84
2018-04-06T02:09:06.056Z,68.13
2018-04-06T02:11:34.326Z,66.33
2018-04-06T02:14:02.598Z,65.72
2018-04-06T02:16:31.039Z,65.90
2018-04-06T02:18:59.313Z,63.66
2018-04-06T02:21:27.756Z,64.41
2018-04-06T02:23:56.052Z,64.40
2018-04-06T02:26:24.318Z,65.79
2018-04-06T02:28:52.577Z,68.73
2018-04-06T02:31:20.842Z,68.83
2018-04-06T02:33:49.119Z,68.24
2018-04-06T02:36:17.393Z,68.80
2018-04-06T02:38:46.671Z,70.11
2018-04-06T02:41:14.933Z,70.99
2018-04-06T02:43:43.410Z,71.63
2018-04-06T02:46:12.993Z,71.47
2018-04-06T02:48:41.351Z,71.76
2018-04-06T02:51:09.638Z,72.33
2018-04-06T02:53:37.899Z,72.71
2018-04-06T02:56:06.162Z,72.41
2018-04-06T02:58:34.475Z,72.90
2018-04-06T03:01:03.527Z,73.23
2018-04-06T03:03:31.790Z,73.43
2018-04-06T03:06:00.217Z,72.54
2018-04-06T03:08:28.495Z,72.46
2018-04-06T03:10:57.532Z,72.83
2018-04-06T03:13:25.868Z,73.42
2018-04-06T03:15:54.906Z,72.79
2018-04-06T03:18:23.192Z,71.00
2018-04-06T03:20:51.449Z,69.30
2018-04-06T03:23:19.733Z,68.01
2018-04-06T03:25:48.026Z,67.61
2018-04-06T03:28:16.267Z,66.78
2018-04-06T03:30:45.304Z,66.32
2018-04-06T03:33:13.566Z,66.18
2018-04-06T03:35:42.047Z,65.11
2018-04-06T03:38:10.324Z,64.74
2018-04-06T03:40:38.592Z,64.60
2018-04-06T03:43:06.863Z,64.71
2018-04-06T03:45:35.131Z,63.97
2018-04-06T03:48:03.401Z,64.21
2018-04-06T03:50:31.689Z,64.23
2018-04-06T03:53:00.057Z,64.32
2018-04-06T03:55:28.304Z,64.76
2018-04-06T03:57:56.583Z,64.96
2018-04-06T04:00:24.843Z,64.62
2018-04-06T04:02:53.881Z,65.17
2018-04-06T04:05:22.347Z,65.42
2018-04-06T04:07:50.623Z,65.74
2018-04-06T04:10:18.993Z,66.01
2018-04-06T04:12:47.434Z,66.00
2018-04-06T04:15:16.491Z,66.31
2018-04-06T04:17:44.805Z,66.35
2018-04-06T04:20:13.086Z,66.83
2018-04-06T04:22:42.130Z,66.63
2018-04-06T04:25:10.379Z,67.07
2018-04-06T04:27:38.622Z,67.41
2018-04-06T04:30:07.673Z,67.46
2018-04-06T04:32:35.958Z,67.54
2018-04-06T04:35:04.248Z,67.36
2018-04-06T04:37:32.571Z,67.54
2018-04-06T04:40:00.886Z,67.34
2018-04-06T04:42:29.807Z,67.67
2018-04-06T04:44:58.846Z,67.83
2018-04-06T04:47:27.147Z,68.05
2018-04-06T04:49:55.839Z,67.73
2018-04-06T04:52:24.436Z,67.72
2018-04-06T04:54:54.268Z,67.58
2018-04-06T04:57:22.727Z,67.64
2018-04-06T04:59:51.267Z,67.47
2018-04-06T05:02:19.686Z,67.16
2018-04-06T05:04:48.170Z,67.30
2018-04-06T05:07:17.220Z,66.75
2018-04-06T05:09:45.522Z,66.64
2018-04-06T05:12:13.834Z,66.61
2018-04-06T05:14:42.873Z,66.56
2018-04-06T05:17:11.145Z,66.58
2018-04-06T05:19:39.420Z,66.20
2018-04-06T05:22:07.698Z,66.37
2018-04-06T05:24:35.995Z,65.86
2018-04-06T05:27:04.308Z,65.88
2018-04-06T05:29:32.702Z,65.71
2018-04-06T05:32:01.196Z,65.72
2018-04-06T05:34:29.460Z,65.09
2018-04-06T05:36:57.735Z,65.22
2018-04-06T05:39:26.022Z,65.11
2018-04-06T05:41:56.161Z,65.29
2018-04-06T05:44:24.416Z,65.80
2018-04-06T05:46:52.797Z,65.39
2018-04-06T05:49:21.139Z,65.35
2018-04-06T05:51:49.564Z,66.11
2018-04-06T05:54:17.941Z,65.51
2018-04-06T05:56:46.218Z,64.83
2018-04-06T05:59:14.536Z,65.09
2018-04-06T06:01:43.685Z,64.78
2018-04-06T06:04:12.079Z,65.05
2018-04-06T06:06:40.344Z,64.77
2018-04-06T06:09:08.627Z,64.47
2018-04-06T06:11:36.893Z,64.67
2018-04-06T06:14:05.202Z,64.40
2018-04-06T06:16:34.268Z,64.20
2018-04-06T06:19:03.008Z,63.52
2018-04-06T06:21:31.375Z,63.24
2018-04-06T06:24:00.400Z,62.90
2018-04-06T06:26:28.705Z,63.22
2018-04-06T06:28:58.434Z,62.46
2018-04-06T06:31:27.579Z,61.31
2018-04-06T06:33:55.966Z,61.38
2018-04-06T06:36:25.026Z,61.41
2018-04-06T06:38:54.542Z,61.49
2018-04-06T06:41:22.777Z,60.76
2018-04-06T06:43:51.060Z,61.20
2018-04-06T06:46:20.079Z,61.13
2018-04-06T06:48:48.548Z,61.14
2018-04-06T06:51:17.578Z,61.08
2018-04-06T06:53:46.770Z,60.51
2018-04-06T06:56:15.161Z,60.76
2018-04-06T06:58:43.792Z,60.08
2018-04-06T07:01:12.078Z,60.29
2018-04-06T07:03:40.340Z,60.14
2018-04-06T07:06:08.674Z,60.43
2018-04-06T07:08:36.932Z,60.16
2018-04-06T07:11:05.718Z,60.79
2018-04-06T07:13:34.040Z,61.26
2018-04-06T07:16:03.074Z,60.45
2018-04-06T07:18:31.470Z,60.10
2018-04-06T07:20:59.758Z,59.50
2018-04-06T07:23:28.064Z,59.81
2018-04-06T07:25:56.300Z,60.76
2018-04-06T07:28:24.838Z,60.13
2018-04-06T07:30:53.171Z,59.14
2018-04-06T07:33:21.620Z,59.47
2018-04-06T07:35:50.045Z,60.36
2018-04-06T07:38:19.090Z,58.07
2018-04-06T07:40:47.568Z,57.81
2018-04-06T07:43:15.827Z,58.86
2018-04-06T07:45:44.115Z,56.57
2018-04-06T07:48:12.378Z,58.18
2018-04-06T07:50:40.974Z,57.68
2018-04-06T07:53:09.249Z,57.18
2018-04-06T07:55:37.820Z,56.93
2018-04-06T07:58:06.076Z,55.80
2018-04-06T08:00:34.350Z,55.44
2018-04-06T08:03:03.369Z,56.01
2018-04-06T08:05:31.632Z,56.22
2018-04-06T08:07:59.928Z,55.98
2018-04-06T08:10:28.269Z,55.64
2018-04-06T08:12:57.358Z,56.09
2018-04-06T08:15:26.407Z,56.89
2018-04-06T08:17:54.819Z,55.65
2018-04-06T08:20:23.139Z,55.63
2018-04-06T08:22:51.530Z,55.70
2018-04-06T08:25:19.793Z,55.99
2018-04-06T08:27:48.076Z,54.59
2018-04-06T08:30:16.520Z,55.53
2018-04-06T08:32:45.707Z,54.28
2018-04-06T08:35:13.967Z,53.55
2018-04-06T08:37:42.258Z,54.34
2018-04-06T08:40:10.538Z,53.79
2018-04-06T08:42:39.679Z,52.68
2018-04-06T08:45:08.213Z,52.49
2018-04-06T08:47:36.594Z,52.78
2018-04-06T08:50:04.876Z,52.97
2018-04-06T08:52:33.266Z,52.96
2018-04-06T08:55:01.548Z,50.77
2018-04-06T08:57:30.006Z,50.76
2018-04-06T08:59:59.052Z,49.61
2018-04-06T09:02:27.306Z,50.56
2018-04-06T09:04:55.639Z,48.95
2018-04-06T09:07:24.661Z,49.41
2018-04-06T09:09:52.956Z,48.34
2018-04-06T09:12:21.310Z,47.55
2018-04-06T09:14:49.599Z,47.71
2018-04-06T09:17:17.894Z,47.12
2018-04-06T09:19:46.428Z,45.13
2018-04-06T09:22:14.726Z,41.15
2018-04-06T09:24:43.047Z,42.54
2018-04-06T09:27:11.336Z,40.46
2018-04-06T09:29:40.455Z,38.47
2018-04-06T09:32:08.980Z,38.50
2018-04-06T09:34:37.244Z,35.97
2018-04-06T09:37:05.564Z,35.73
2018-04-06T09:39:34.597Z,34.12
2018-04-06T09:42:02.907Z,34.27
2018-04-06T09:44:31.166Z,34.91
2018-04-06T09:46:59.560Z,34.16
2018-04-06T09:49:27.865Z,35.72
2018-04-06T09:51:57.319Z,35.50
2018-04-06T09:54:25.684Z,34.95
2018-04-06T09:56:54.090Z,33.01
2018-04-06T09:59:22.390Z,33.60
2018-04-06T10:01:51.457Z,32.39
2018-04-06T10:04:21.238Z,33.70
2018-04-06T10:06:49.491Z,32.48
2018-04-06T10:09:17.773Z,33.25
2018-04-06T10:11:51.191Z,33.54
2018-04-06T10:14:19.503Z,32.63
2018-04-06T10:16:47.788Z,32.30
2018-04-06T10:19:16.481Z,31.68
2018-04-06T10:21:45.528Z,32.05
2018-04-06T10:24:14.591Z,32.57
2018-04-06T10:26:43.187Z,32.08
2018-04-06T10:29:11.465Z,32.06
2018-04-06T10:31:39.745Z,31.93
2018-04-06T10:34:08.033Z,30.71
2018-04-06T10:36:36.355Z,30.45
2018-04-06T10:39:06.366Z,32.60
2018-04-06T10:41:35.574Z,33.24
2018-04-06T10:44:04.047Z,31.46
2018-04-06T10:46:32.401Z,33.30
2018-04-06T10:49:01.490Z,32.24
2018-04-06T10:51:29.730Z,32.02
2018-04-06T10:53:58.044Z,32.62
2018-04-06T10:56:27.084Z,30.71
2018-04-06T10:58:55.395Z,30.35
2018-04-06T11:01:23.698Z,29.59
2018-04-06T11:03:53.158Z,29.32
2018-04-06T11:06:21.464Z,28.59
2018-04-06T11:08:49.719Z,27.66
2018-04-06T11:11:18.283Z,28.55
2018-04-06T11:13:46.610Z,27.91
2018-04-06T11:16:14.934Z,29.19
2018-04-06T11:18:43.288Z,28.69
2018-04-06T11:21:11.604Z,30.36
2018-04-06T11:23:39.873Z,29.03
2018-04-06T11:26:08.451Z,28.88
2018-04-06T11:28:36.709Z,28.63
2018-04-06T11:31:05.050Z,28.34
2018-04-06T11:33:34.123Z,26.59
2018-04-06T11:36:02.556Z,26.84
2018-04-06T11:38:30.823Z,28.00
2018-04-06T11:40:59.108Z,28.74
2018-04-06T11:43:27.602Z,27.90
2018-04-06T11:45:55.904Z,28.81
2018-04-06T11:48:24.215Z,29.70
2018-04-06T11:50:53.301Z,28.56
2018-04-06T11:53:23.311Z,26.95
2018-04-06T11:55:51.600Z,27.73
2018-04-06T11:58:20.645Z,26.34
2018-04-06T12:00:48.933Z,27.07
2018-04-06T12:03:17.209Z,27.75
2018-04-06T12:05:45.484Z,28.64
2018-04-06T12:08:13.754Z,27.85
2018-04-06T12:10:42.856Z,27.43
2018-04-06T12:13:11.117Z,28.04
2018-04-06T12:15:39.409Z,27.00
2018-04-06T12:18:07.740Z,27.70
2018-04-06T12:20:36.211Z,27.27
2018-04-06T12:23:04.529Z,26.66
2018-04-06T12:25:32.809Z,26.84
2018-04-06T12:28:01.264Z,28.27
2018-04-06T12:30:29.710Z,27.88
2018-04-06T12:32:58.117Z,27.18
2018-04-06T12:35:26.461Z,26.72
2018-04-06T12:37:55.928Z,26.19
2018-04-06T12:40:24.250Z,29.71
2018-04-06T12:42:52.687Z,30.37
2018-04-06T12:45:21.008Z,32.66
2018-04-06T12:47:49.359Z,32.81
2018-04-06T12:50:17.639Z,34.93
2018-04-06T12:52:46.722Z,34.13
2018-04-06T12:55:15.778Z,35.19
2018-04-06T12:57:44.161Z,35.60
2018-04-06T13:00:12.674Z,36.25
2018-04-06T13:02:41.744Z,36.44
2018-04-06T13:05:10.032Z,36.75
2018-04-06T13:07:38.366Z,37.13
2018-04-06T13:10:06.676Z,36.40
2018-04-06T13:12:34.975Z,36.33
2018-04-06T13:15:03.275Z,36.85
2018-04-06T13:17:31.595Z,36.43
2018-04-06T13:19:59.857Z,37.39
2018-04-06T13:22:28.171Z,36.50
2018-04-06T13:24:57.316Z,35.49
2018-04-06T13:27:25.598Z,36.81
2018-04-06T13:29:53.869Z,36.81
2018-04-06T13:32:22.241Z,36.84
2018-04-06T13:34:50.546Z,36.63
2018-04-06T13:37:18.920Z,37.17
2018-04-06T13:39:47.207Z,37.39
2018-04-06T13:42:15.486Z,36.72
2018-04-06T13:44:44.548Z,36.48
2018-04-06T13:47:12.818Z,36.65
2018-04-06T13:49:41.104Z,36.73
2018-04-06T13:52:09.469Z,36.83
2018-04-06T13:54:37.786Z,37.20
2018-04-06T13:57:06.048Z,37.13
2018-04-06T13:59:34.368Z,36.24
2018-04-06T14:02:02.671Z,36.72
2018-04-06T14:04:30.983Z,37.51
2018-04-06T14:06:59.258Z,37.46
2018-04-06T14:09:27.703Z,36.94
2018-04-06T14:11:56.002Z,36.42
2018-04-06T14:14:24.973Z,36.71
2018-04-06T14:16:53.280Z,37.00
2018-04-06T14:19:21.871Z,37.42
2018-04-06T14:21:50.185Z,36.25
2018-04-06T14:24:18.511Z,36.10
2018-04-06T14:26:46.790Z,35.62
2018-04-06T14:29:15.239Z,37.32
2018-04-06T14:31:44.220Z,35.85
2018-04-06T14:34:12.526Z,35.35
2018-04-06T14:36:40.895Z,36.24
2018-04-06T14:39:09.179Z,35.95
2018-04-06T14:41:37.489Z,36.03
2018-04-06T14:44:05.884Z,36.39
2018-04-06T14:46:34.236Z,36.84
2018-04-06T14:49:02.575Z,35.57
2018-04-06T14:51:30.985Z,35.66
2018-04-06T14:54:00.044Z,34.96
2018-04-06T14:56:28.350Z,34.64
2018-04-06T14:58:57.427Z,34.15
2018-04-06T15:01:27.236Z,35.28
2018-04-06T15:06:30.061Z,35.00
2018-04-06T15:08:59.187Z,34.48
2018-04-06T15:11:27.607Z,35.30
2018-04-06T15:13:57.423Z,34.64
2018-04-06T15:16:25.775Z,33.35
2018-04-06T15:18:54.098Z,33.83
2018-04-06T15:21:23.180Z,33.45
2018-04-06T15:23:52.375Z,32.83
2018-04-06T15:26:20.967Z,32.23
2018-04-06T15:28:50.020Z,33.68
2018-04-06T15:31:18.596Z,33.35
2018-04-06T15:33:46.948Z,32.66
2018-04-06T15:36:15.288Z,33.05
2018-04-06T15:38:43.557Z,32.35
2018-04-06T15:41:11.896Z,32.65
2018-04-06T15:43:40.411Z,31.39
2018-04-06T15:46:08.715Z,30.36
2018-04-06T15:48:37.815Z,30.46
2018-04-06T15:51:06.836Z,30.05
2018-04-06T15:53:35.662Z,29.22
2018-04-06T15:56:05.023Z,30.22
2018-04-06T15:58:34.568Z,30.69
2018-04-06T16:01:02.924Z,30.87
2018-04-06T16:03:31.245Z,31.30
2018-04-06T16:06:00.326Z,31.13
2018-04-06T16:08:29.505Z,31.17
2018-04-06T16:10:58.374Z,30.98
2018-04-06T16:13:26.657Z,28.85
2018-04-06T16:15:54.934Z,28.38
2018-04-06T16:18:23.219Z,28.97
2018-04-06T16:20:51.628Z,28.85
2018-04-06T16:23:20.675Z,28.34
2018-04-06T16:25:49.035Z,28.77
2018-04-06T16:28:17.387Z,29.06
2018-04-06T16:30:45.932Z,29.18
2018-04-06T16:33:14.274Z,28.93
2018-04-06T16:35:42.754Z,28.80
2018-04-06T16:38:11.157Z,29.87
2018-04-06T16:40:39.505Z,30.01
2018-04-06T16:43:07.803Z,30.04
2018-04-06T16:45:36.130Z,28.98
2018-04-06T16:48:04.495Z,30.33
2018-04-06T16:50:33.563Z,29.25
2018-04-06T16:53:01.876Z,29.74
2018-04-06T16:55:30.980Z,29.92
2018-04-06T16:57:59.293Z,30.82
2018-04-06T17:00:27.651Z,30.77
2018-04-06T17:02:55.958Z,31.34
2018-04-06T17:05:24.740Z,31.89
2018-04-06T17:07:53.065Z,32.59
2018-04-06T17:10:22.705Z,33.04
2018-04-06T17:12:52.655Z,33.68
2018-04-06T17:15:22.238Z,34.18
2018-04-06T17:17:50.683Z,34.42
2018-04-06T17:20:19.504Z,34.34
2018-04-06T17:22:48.806Z,34.85
2018-04-06T17:25:17.793Z,34.97
2018-04-06T17:27:46.419Z,35.25
2018-04-06T17:30:15.269Z,36.25
2018-04-06T17:32:44.257Z,36.62
2018-04-06T17:35:15.630Z,35.92
2018-04-06T17:37:44.384Z,36.49
2018-04-06T17:40:13.870Z,36.55
2018-04-06T17:42:42.781Z,36.73
2018-04-06T17:45:12.908Z,36.99
2018-04-06T17:47:41.796Z,37.06
2018-04-06T17:50:11.874Z,37.08
2018-04-06T17:52:40.838Z,37.27
2018-04-06T17:55:10.144Z,37.40
2018-04-06T17:57:39.553Z,37.69
2018-04-06T18:00:08.155Z,37.71
2018-04-06T18:02:37.034Z,37.66
2018-04-06T18:05:05.559Z,37.51
2018-04-06T18:07:35.243Z,37.66
2018-04-06T18:10:04.204Z,37.73
2018-04-06T18:12:32.799Z,37.79
2018-04-06T18:15:03.611Z,37.98
2018-04-06T18:17:32.089Z,37.86
2018-04-06T18:20:01.474Z,38.31
2018-04-06T18:22:30.370Z,38.55
2018-04-06T18:24:59.425Z,37.94
2018-04-06T18:27:28.399Z,38.56
2018-04-06T18:29:57.959Z,38.70
2018-04-06T18:32:26.883Z,38.89
2018-04-06T18:34:56.060Z,38.50
2018-04-06T18:37:25.777Z,38.73
2018-04-06T18:39:55.802Z,38.74
2018-04-06T18:42:25.214Z,38.98
2018-04-06T18:44:54.037Z,39.45
2018-04-06T18:47:22.809Z,39.26
2018-04-06T18:49:51.482Z,39.29
2018-04-06T18:52:20.903Z,39.29
2018-04-06T18:54:49.548Z,39.54
2018-04-06T18:57:19.224Z,39.75
2018-04-06T18:59:47.977Z,39.62
2018-04-06T19:02:17.442Z,39.79
2018-04-06T19:04:46.536Z,39.82
2018-04-06T19:07:15.092Z,39.92
2018-04-06T19:09:44.224Z,40.05
2018-04-06T19:12:12.578Z,39.96
2018-04-06T19:14:41.222Z,40.07
2018-04-06T19:17:10.013Z,40.20
2018-04-06T19:19:38.865Z,40.34
2018-04-06T19:22:07.637Z,39.79
2018-04-06T19:24:37.503Z,40.11
2018-04-06T19:27:10.900Z,39.99
2018-04-06T19:29:40.484Z,40.19
2018-04-06T19:32:10.300Z,39.97
2018-04-06T19:34:39.754Z,40.01
2018-04-06T19:37:09.929Z,39.82
2018-04-06T19:39:39.200Z,40.24
2018-04-06T19:42:09.267Z,40.24
2018-04-06T19:44:39.971Z,40.24
2018-04-06T19:47:09.480Z,40.30
2018-04-06T19:49:40.440Z,40.30
2018-04-06T19:52:09.312Z,40.74
2018-04-06T19:54:38.789Z,40.47
2018-04-06T19:57:08.946Z,40.73
2018-04-06T19:59:38.620Z,41.04
2018-04-06T20:02:07.524Z,41.00
2018-04-06T20:04:37.209Z,41.20
2018-04-06T20:07:06.010Z,41.00
2018-04-06T20:09:34.677Z,41.24
2018-04-06T20:12:03.958Z,41.54
2018-04-06T20:14:33.718Z,41.45
2018-04-06T20:17:02.979Z,41.81
2018-04-06T20:19:31.741Z,41.72
2018-04-06T20:22:00.420Z,42.09
2018-04-06T20:24:30.453Z,42.00
2018-04-06T20:26:59.084Z,42.26
2018-04-06T20:29:28.775Z,42.45
2018-04-06T20:31:57.358Z,42.30
2018-04-06T20:34:26.082Z,42.64
2018-04-06T20:36:55.829Z,42.45
2018-04-06T20:39:24.889Z,42.64
2018-04-06T20:41:53.878Z,42.78
2018-04-06T20:44:22.975Z,42.92
2018-04-06T20:46:51.965Z,42.72
2018-04-06T20:49:20.614Z,43.00
2018-04-06T20:51:49.596Z,42.93
2018-04-06T20:54:18.094Z,43.33
2018-04-06T20:56:46.870Z,43.18
2018-04-06T20:59:15.934Z,43.13
2018-04-06T21:01:46.055Z,43.25
2018-04-06T21:04:14.920Z,43.30
2018-04-06T21:06:43.434Z,43.73
2018-04-06T21:09:12.227Z,43.43
2018-04-06T21:11:40.809Z,43.51
2018-04-06T21:14:10.370Z,43.18
2018-04-06T21:16:39.009Z,43.40
2018-04-06T21:19:07.649Z,43.58
2018-04-06T21:21:36.893Z,43.38
2018-04-06T21:24:05.369Z,43.43
2018-04-06T21:26:33.852Z,44.13
2018-04-06T21:29:02.451Z,43.75
2018-04-06T21:31:31.336Z,43.77
2018-04-06T21:34:02.672Z,43.82
2018-04-06T21:36:31.302Z,44.07
2018-04-06T21:39:00.596Z,44.05
2018-04-06T21:41:29.283Z,44.46
2018-04-06T21:43:58.516Z,44.79
2018-04-06T21:46:26.957Z,44.80
2018-04-06T21:48:55.762Z,44.91
2018-04-06T21:51:24.412Z,45.11
2018-04-06T21:53:53.216Z,45.07
2018-04-06T21:56:22.404Z,45.13
2018-04-06T21:58:51.168Z,45.18
2018-04-06T22:01:19.739Z,45.24
2018-04-06T22:03:48.352Z,45.80
2018-04-06T22:06:17.255Z,45.79
2018-04-06T22:08:45.977Z,45.62
2018-04-06T22:11:14.834Z,45.69
2018-04-06T22:13:44.247Z,46.07
2018-04-06T22:16:13.242Z,46.16
2018-04-06T22:18:42.650Z,46.36
2018-04-06T22:21:11.326Z,46.33
2018-04-06T22:23:40.178Z,46.42
2018-04-06T22:26:08.763Z,46.98
2018-04-06T22:28:37.972Z,46.51
2018-04-06T22:31:07.008Z,46.33
2018-04-06T22:33:35.916Z,46.66
2018-04-06T22:36:04.934Z,46.62
2018-04-06T22:38:34.235Z,47.06
2018-04-06T22:41:03.671Z,47.46
2018-04-06T22:43:33.052Z,47.70
2018-04-06T22:46:02.102Z,47.79
2018-04-06T22:48:30.540Z,47.72
2018-04-06T22:50:59.775Z,47.96
2018-04-06T22:53:28.402Z,47.75
2018-04-06T22:55:56.820Z,47.47
2018-04-06T22:58:25.092Z,47.35
2018-04-06T23:00:53.352Z,47.92
2018-04-06T23:03:22.426Z,47.90
2018-04-06T23:05:50.829Z,47.66
2018-04-06T23:08:19.841Z,48.04
2018-04-06T23:10:48.137Z,47.95
2018-04-06T23:13:16.433Z,48.03
2018-04-06T23:15:44.743Z,47.96
2018-04-06T23:18:13.259Z,47.79
2018-04-06T23:20:41.616Z,47.90
2018-04-06T23:23:09.918Z,47.87
2018-04-06T23:25:38.204Z,48.19
2018-04-06T23:28:06.465Z,48.86
2018-04-06T23:30:34.753Z,48.54
2018-04-06T23:33:03.047Z,49.20
2018-04-06T23:35:31.356Z,49.00
2018-04-06T23:38:00.395Z,48.95
2018-04-06T23:40:28.693Z,48.70
2018-04-06T23:42:56.947Z,48.92
2018-04-06T23:45:25.304Z,48.97
2018-04-06T23:47:53.605Z,49.30
2018-04-06T23:50:21.853Z,49.37
2018-04-06T23:52:50.122Z,49.36
2018-04-06T23:55:18.380Z,49.42
2018-04-06T23:57:46.664Z,49.50
